createdAt,value
2023-02-24T00:00:47.348Z,68.47
2023-02-24T00:03:15.829Z,68.35
2023-02-24T00:05:54.598Z,68.39
2023-02-24T00:08:24.490Z,68.78
2023-02-24T00:10:54.244Z,68.65
2023-02-24T00:13:22.648Z,68.65
2023-02-24T00:16:02.047Z,68.84
2023-02-24T00:18:32.230Z,68.43
2023-02-24T00:21:08.203Z,68.84
2023-02-24T00:23:40.290Z,68.88
2023-02-24T00:26:10.224Z,68.79
2023-02-24T00:28:38.954Z,68.74
2023-02-24T00:31:09.913Z,68.59
2023-02-24T00:33:39.732Z,68.94
2023-02-24T00:36:10.584Z,68.58
2023-02-24T00:38:45.010Z,69.15
2023-02-24T00:41:18.281Z,68.46
2023-02-24T00:43:47.866Z,68.79
2023-02-24T00:46:17.419Z,69.27
2023-02-24T00:48:46.966Z,68.63
2023-02-24T00:51:18.122Z,68.78
2023-02-24T00:53:47.990Z,68.87
2023-02-24T00:56:17.042Z,69.11
2023-02-24T00:58:45.715Z,69.27
2023-02-24T01:01:15.728Z,69.22
2023-02-24T01:03:44.559Z,69.20
2023-02-24T01:06:14.497Z,69.03
2023-02-24T01:08:47.641Z,69.67
2023-02-24T01:11:36.484Z,69.00
2023-02-24T01:14:06.269Z,69.31
2023-02-24T01:16:34.622Z,68.81
2023-02-24T01:19:02.998Z,69.16
2023-02-24T01:21:31.415Z,68.56
2023-02-24T01:24:10.544Z,68.91
2023-02-24T01:26:40.539Z,68.55
2023-02-24T01:29:09.789Z,68.59
2023-02-24T01:31:38.593Z,69.26
2023-02-24T01:34:07.517Z,69.41
2023-02-24T01:36:35.835Z,69.21
2023-02-24T01:39:07.344Z,69.90
2023-02-24T01:41:35.732Z,69.66
2023-02-24T01:44:09.676Z,69.82
2023-02-24T01:46:39.804Z,69.52
2023-02-24T01:49:12.030Z,69.58
2023-02-24T01:51:43.892Z,69.73
2023-02-24T01:54:16.491Z,69.15
2023-02-24T01:56:48.386Z,69.62
2023-02-24T01:59:18.462Z,69.64
2023-02-24T02:01:48.446Z,69.47
2023-02-24T02:04:22.122Z,69.29
2023-02-24T02:06:50.779Z,69.09
2023-02-24T02:09:19.435Z,69.10
2023-02-24T02:11:49.287Z,69.18
2023-02-24T02:14:22.588Z,69.32
2023-02-24T02:17:05.044Z,69.32
2023-02-24T02:20:01.442Z,69.53
2023-02-24T02:22:50.151Z,69.48
2023-02-24T02:25:25.566Z,69.15
2023-02-24T02:28:22.588Z,69.39
2023-02-24T02:31:25.881Z,69.51
2023-02-24T02:34:23.392Z,69.77
2023-02-24T02:37:00.459Z,69.27
2023-02-24T02:39:37.108Z,70.14
2023-02-24T02:42:15.910Z,70.08
2023-02-24T02:44:56.172Z,69.69
2023-02-24T02:47:29.118Z,70.00
2023-02-24T02:50:08.185Z,70.11
2023-02-24T02:52:42.296Z,70.25
2023-02-24T02:55:14.618Z,70.14
2023-02-24T02:57:48.373Z,70.42
2023-02-24T03:00:23.251Z,69.83
2023-02-24T03:02:55.262Z,69.71
2023-02-24T03:05:32.864Z,69.93
2023-02-24T03:08:05.676Z,70.28
2023-02-24T03:10:34.909Z,69.67
2023-02-24T03:13:06.850Z,70.37
2023-02-24T03:15:44.839Z,70.14
2023-02-24T03:18:29.085Z,70.62
2023-02-24T03:21:07.552Z,70.12
2023-02-24T03:23:38.909Z,70.21
2023-02-24T03:26:17.265Z,70.50
2023-02-24T03:28:53.682Z,70.50
2023-02-24T03:31:29.029Z,69.93
2023-02-24T03:34:03.807Z,70.61
2023-02-24T03:36:34.128Z,70.66
2023-02-24T03:39:05.428Z,70.46
2023-02-24T03:41:41.284Z,70.34
2023-02-24T03:44:12.129Z,70.41
2023-02-24T03:46:42.582Z,70.27
2023-02-24T03:49:14.023Z,70.79
2023-02-24T03:51:45.099Z,71.40
2023-02-24T03:54:30.858Z,71.10
2023-02-24T03:57:12.909Z,71.04
2023-02-24T03:59:52.819Z,71.04
2023-02-24T04:02:25.105Z,71.06
2023-02-24T04:05:00.462Z,70.69
2023-02-24T04:07:41.193Z,70.35
2023-02-24T04:10:15.556Z,70.65
2023-02-24T04:12:53.879Z,70.82
2023-02-24T04:15:29.059Z,71.06
2023-02-24T04:18:01.423Z,70.65
2023-02-24T04:20:33.079Z,70.38
2023-02-24T04:23:08.771Z,70.71
2023-02-24T04:25:37.954Z,70.46
2023-02-24T04:28:08.031Z,71.09
2023-02-24T04:30:40.051Z,70.83
2023-02-24T04:33:10.085Z,70.72
2023-02-24T04:35:40.518Z,71.27
2023-02-24T04:38:10.219Z,71.61
2023-02-24T04:40:40.870Z,71.28
2023-02-24T04:43:09.918Z,71.90
2023-02-24T04:45:40.050Z,71.69
2023-02-24T04:48:12.951Z,71.54
2023-02-24T04:50:43.170Z,71.58
2023-02-24T04:53:15.523Z,70.92
2023-02-24T04:55:48.772Z,71.27
2023-02-24T04:58:20.236Z,71.57
2023-02-24T05:00:57.399Z,71.10
2023-02-24T05:03:28.589Z,71.42
2023-02-24T05:06:00.097Z,71.04
2023-02-24T05:08:31.850Z,70.93
2023-02-24T05:11:05.671Z,71.22
2023-02-24T05:13:37.659Z,71.52
2023-02-24T05:16:08.341Z,71.29
2023-02-24T05:18:37.207Z,71.23
2023-02-24T05:21:25.880Z,71.39
2023-02-24T05:23:55.949Z,71.78
2023-02-24T05:26:25.793Z,71.80
2023-02-24T05:28:59.665Z,71.56
2023-02-24T05:31:29.885Z,71.29
2023-02-24T05:34:02.648Z,71.43
2023-02-24T05:36:34.207Z,71.29
2023-02-24T05:39:07.696Z,71.59
2023-02-24T05:41:38.909Z,71.93
2023-02-24T05:44:09.506Z,71.46
2023-02-24T05:46:40.394Z,71.48
2023-02-24T05:49:14.302Z,71.37
2023-02-24T05:51:54.583Z,71.22
2023-02-24T05:54:29.353Z,71.40
2023-02-24T05:57:01.562Z,71.66
2023-02-24T05:59:33.075Z,71.62
2023-02-24T06:02:07.056Z,71.56
2023-02-24T06:04:50.032Z,71.61
2023-02-24T06:07:20.754Z,71.50
2023-02-24T06:09:53.634Z,71.66
2023-02-24T06:12:23.416Z,71.78
2023-02-24T06:14:53.015Z,71.92
2023-02-24T06:17:22.957Z,71.32
2023-02-24T06:19:53.076Z,71.93
2023-02-24T06:22:23.265Z,71.34
2023-02-24T06:24:54.484Z,71.34
2023-02-24T06:27:24.896Z,71.52
2023-02-24T06:29:55.329Z,71.32
2023-02-24T06:32:27.054Z,70.76
2023-02-24T06:34:57.188Z,71.00
2023-02-24T06:37:27.320Z,71.42
2023-02-24T06:39:58.260Z,71.31
2023-02-24T06:42:26.597Z,70.82
2023-02-24T06:44:54.989Z,70.86
2023-02-24T06:47:23.290Z,71.57
2023-02-24T06:49:51.761Z,71.56
2023-02-24T06:52:21.373Z,71.30
2023-02-24T06:54:52.466Z,70.86
2023-02-24T06:57:23.552Z,71.23
2023-02-24T06:59:52.325Z,71.03
2023-02-24T07:02:20.686Z,70.96
2023-02-24T07:04:49.050Z,71.15
2023-02-24T07:07:17.605Z,71.38
2023-02-24T07:09:46.132Z,70.48
2023-02-24T07:12:21.079Z,70.75
2023-02-24T07:14:50.916Z,70.89
2023-02-24T07:17:19.973Z,71.09
2023-02-24T07:19:48.378Z,70.64
2023-02-24T07:22:24.943Z,70.92
2023-02-24T07:25:00.514Z,70.78
2023-02-24T07:27:30.103Z,70.80
2023-02-24T07:30:00.142Z,70.24
2023-02-24T07:32:28.529Z,70.66
2023-02-24T07:34:56.856Z,70.68
2023-02-24T07:37:25.211Z,70.48
2023-02-24T07:39:53.692Z,70.33
2023-02-24T07:42:22.492Z,70.49
2023-02-24T07:44:50.967Z,70.30
2023-02-24T07:47:21.449Z,70.25
2023-02-24T07:49:51.302Z,70.38
2023-02-24T07:52:19.653Z,70.39
2023-02-24T07:54:49.666Z,70.41
2023-02-24T07:57:19.007Z,70.03
2023-02-24T07:59:48.120Z,70.17
2023-02-24T08:02:18.362Z,69.85
2023-02-24T08:04:51.734Z,69.81
2023-02-24T08:07:24.817Z,70.08
2023-02-24T08:10:14.415Z,70.07
2023-02-24T08:12:43.790Z,69.84
2023-02-24T08:15:24.064Z,69.78
2023-02-24T08:18:00.474Z,69.94
2023-02-24T08:20:36.270Z,69.76
2023-02-24T08:23:08.551Z,69.63
2023-02-24T08:25:36.939Z,69.43
2023-02-24T08:28:09.177Z,69.40
2023-02-24T08:30:40.684Z,69.07
2023-02-24T08:33:10.708Z,69.16
2023-02-24T08:35:45.329Z,69.07
2023-02-24T08:38:16.555Z,69.07
2023-02-24T08:40:55.113Z,68.77
2023-02-24T08:43:33.411Z,68.78
2023-02-24T08:46:06.612Z,68.63
2023-02-24T08:48:42.194Z,68.38
2023-02-24T08:51:17.768Z,68.30
2023-02-24T08:53:47.779Z,68.35
2023-02-24T08:56:24.260Z,68.45
2023-02-24T08:58:58.111Z,68.13
2023-02-24T09:01:34.633Z,67.80
2023-02-24T09:04:06.382Z,67.96
2023-02-24T09:06:45.020Z,67.99
2023-02-24T09:09:19.010Z,67.68
2023-02-24T09:11:48.445Z,67.75
2023-02-24T09:14:27.119Z,67.57
2023-02-24T09:17:11.257Z,67.69
2023-02-24T09:20:02.446Z,67.45
2023-02-24T09:22:40.680Z,67.71
2023-02-24T09:25:23.891Z,67.30
2023-02-24T09:27:56.099Z,67.08
2023-02-24T09:30:36.821Z,67.35
2023-02-24T09:33:21.260Z,67.25
2023-02-24T09:36:02.933Z,67.07
2023-02-24T09:38:50.178Z,67.16
2023-02-24T09:41:31.628Z,66.63
2023-02-24T09:44:04.020Z,66.92
2023-02-24T09:46:39.331Z,66.64
2023-02-24T09:49:17.350Z,66.98
2023-02-24T09:51:53.332Z,67.26
2023-02-24T09:54:24.725Z,67.23
2023-02-24T09:57:08.253Z,66.37
2023-02-24T10:00:01.110Z,66.07
2023-02-24T10:02:45.248Z,66.24
2023-02-24T10:05:27.387Z,65.68
2023-02-24T10:07:58.050Z,65.64
2023-02-24T10:10:36.012Z,66.03
2023-02-24T10:13:17.037Z,65.12
2023-02-24T10:16:06.171Z,65.84
2023-02-24T10:18:44.188Z,64.76
2023-02-24T10:21:30.402Z,65.06
2023-02-24T10:24:09.424Z,64.69
2023-02-24T10:27:00.090Z,64.52
2023-02-24T10:29:43.234Z,65.02
2023-02-24T10:32:24.060Z,65.29
2023-02-24T10:34:53.991Z,65.05
2023-02-24T10:37:28.912Z,64.49
2023-02-24T10:39:59.650Z,64.38
2023-02-24T10:42:31.972Z,64.84
2023-02-24T10:45:20.673Z,64.07
2023-02-24T10:47:57.094Z,64.67
2023-02-24T10:50:29.798Z,64.34
2023-02-24T10:53:34.359Z,64.42
2023-02-24T10:56:26.762Z,64.00
2023-02-24T10:59:41.224Z,64.44
2023-02-24T11:02:29.444Z,63.99
2023-02-24T11:05:37.871Z,64.43
2023-02-24T11:08:09.520Z,64.58
2023-02-24T11:10:53.264Z,64.43
2023-02-24T11:13:39.440Z,64.21
2023-02-24T11:16:29.265Z,63.95
2023-02-24T11:18:58.605Z,64.16
2023-02-24T11:21:28.769Z,64.03
2023-02-24T11:24:02.966Z,63.64
2023-02-24T11:26:37.308Z,63.63
2023-02-24T11:29:24.234Z,63.23
2023-02-24T11:32:18.922Z,63.23
2023-02-24T11:34:54.350Z,63.52
2023-02-24T11:37:37.331Z,63.36
2023-02-24T11:40:13.583Z,63.69
2023-02-24T11:42:46.275Z,63.32
2023-02-24T11:45:29.398Z,63.22
2023-02-24T11:48:04.919Z,63.19
2023-02-24T11:50:47.225Z,63.01
2023-02-24T11:53:27.325Z,63.44
2023-02-24T11:56:01.887Z,63.11
2023-02-24T11:58:40.459Z,63.39
2023-02-24T12:01:16.019Z,63.14
2023-02-24T12:03:56.687Z,63.09
2023-02-24T12:06:35.371Z,63.19
2023-02-24T12:09:10.353Z,63.05
2023-02-24T12:11:46.510Z,63.20
2023-02-24T12:14:24.171Z,63.01
2023-02-24T12:17:01.321Z,62.89
2023-02-24T12:19:37.153Z,63.03
2023-02-24T12:22:15.547Z,62.82
2023-02-24T12:24:49.850Z,62.76
2023-02-24T12:27:27.681Z,62.83
2023-02-24T12:30:06.863Z,62.60
2023-02-24T12:32:57.535Z,62.68
2023-02-24T12:35:35.281Z,62.64
2023-02-24T12:38:17.457Z,62.55
2023-02-24T12:41:05.757Z,62.28
2023-02-24T12:43:39.919Z,62.45
2023-02-24T12:46:24.278Z,61.94
2023-02-24T12:49:16.524Z,61.86
2023-02-24T12:51:57.406Z,61.94
2023-02-24T12:54:38.375Z,61.80
2023-02-24T12:57:15.791Z,61.61
2023-02-24T12:59:44.406Z,61.82
2023-02-24T13:02:23.535Z,61.66
2023-02-24T13:05:14.007Z,61.54
2023-02-24T13:08:03.867Z,61.42
2023-02-24T13:10:39.689Z,61.29
2023-02-24T13:13:25.138Z,61.40
2023-02-24T13:16:09.090Z,61.36
2023-02-24T13:18:39.555Z,61.15
2023-02-24T13:21:10.925Z,61.16
2023-02-24T13:23:42.867Z,60.75
2023-02-24T13:26:11.458Z,60.74
2023-02-24T13:28:39.917Z,60.97
2023-02-24T13:31:10.461Z,60.78
2023-02-24T13:33:41.936Z,60.43
2023-02-24T13:36:14.794Z,60.21
2023-02-24T13:38:46.107Z,60.08
2023-02-24T13:41:38.092Z,59.71
2023-02-24T13:44:24.450Z,59.86
2023-02-24T13:47:18.989Z,60.14
2023-02-24T13:50:01.090Z,60.69
2023-02-24T13:52:46.997Z,60.46
2023-02-24T13:55:33.826Z,60.33
2023-02-24T13:58:20.894Z,60.34
2023-02-24T14:01:03.618Z,60.64
2023-02-24T14:03:33.028Z,60.69
2023-02-24T14:06:02.984Z,60.68
2023-02-24T14:08:42.422Z,60.63
2023-02-24T14:11:16.380Z,60.70
2023-02-24T14:13:49.482Z,60.72
2023-02-24T14:16:21.767Z,61.02
2023-02-24T14:18:55.122Z,61.29
2023-02-24T14:21:26.018Z,61.33
2023-02-24T14:23:58.820Z,61.85
2023-02-24T14:26:31.490Z,62.15
2023-02-24T14:29:01.827Z,62.40
2023-02-24T14:31:31.257Z,62.56
2023-02-24T14:34:02.553Z,62.39
2023-02-24T14:36:34.227Z,62.83
2023-02-24T14:39:09.196Z,62.86
2023-02-24T14:41:38.886Z,62.81
2023-02-24T14:44:19.372Z,63.08
2023-02-24T14:46:49.363Z,63.15
2023-02-24T14:49:26.277Z,62.93
2023-02-24T14:51:59.099Z,63.05
2023-02-24T14:54:40.300Z,63.00
2023-02-24T14:57:13.814Z,63.14
2023-02-24T14:59:46.336Z,62.89
2023-02-24T15:02:19.600Z,63.12
2023-02-24T15:04:48.529Z,62.97
2023-02-24T15:07:23.758Z,63.08
2023-02-24T15:09:54.967Z,63.00
2023-02-24T15:12:30.166Z,63.29
2023-02-24T15:15:01.988Z,63.29
2023-02-24T15:17:31.098Z,63.17
2023-02-24T15:19:59.512Z,63.21
2023-02-24T15:22:30.676Z,63.28
2023-02-24T15:25:18.750Z,63.88
2023-02-24T15:27:53.883Z,63.33
2023-02-24T15:30:34.061Z,63.57
2023-02-24T15:33:05.938Z,63.33
2023-02-24T15:35:37.620Z,63.37
2023-02-24T15:38:06.423Z,63.58
2023-02-24T15:40:34.744Z,63.31
2023-02-24T15:43:12.001Z,63.44
2023-02-24T15:45:41.227Z,63.63
2023-02-24T15:48:24.176Z,63.54
2023-02-24T15:50:52.518Z,63.55
2023-02-24T15:53:21.077Z,63.79
2023-02-24T15:55:50.266Z,63.66
2023-02-24T15:58:23.088Z,63.38
2023-02-24T16:00:52.508Z,63.43
2023-02-24T16:03:21.061Z,63.38
2023-02-24T16:05:49.471Z,63.75
2023-02-24T16:08:20.666Z,63.97
2023-02-24T16:10:50.440Z,64.18
2023-02-24T16:13:23.996Z,64.26
2023-02-24T16:15:53.465Z,64.08
2023-02-24T16:18:24.324Z,64.02
2023-02-24T16:20:54.473Z,64.05
2023-02-24T16:23:23.895Z,64.47
2023-02-24T16:25:56.689Z,64.21
2023-02-24T16:28:27.007Z,64.66
2023-02-24T16:30:55.461Z,64.57
2023-02-24T16:33:24.351Z,64.89
2023-02-24T16:35:54.008Z,65.01
2023-02-24T16:38:26.660Z,64.70
2023-02-24T16:40:56.262Z,64.83
2023-02-24T16:43:26.044Z,64.76
2023-02-24T16:45:56.581Z,65.01
2023-02-24T16:48:27.514Z,65.20
2023-02-24T16:50:56.245Z,64.79
2023-02-24T16:53:25.389Z,65.60
2023-02-24T16:55:53.986Z,65.44
2023-02-24T16:58:23.421Z,65.41
2023-02-24T17:00:56.202Z,65.63
2023-02-24T17:03:28.008Z,65.62
2023-02-24T17:05:57.696Z,65.48
2023-02-24T17:08:26.276Z,65.61
2023-02-24T17:10:54.793Z,65.32
2023-02-24T17:13:23.250Z,65.63
2023-02-24T17:15:55.468Z,65.96
2023-02-24T17:18:24.430Z,66.14
2023-02-24T17:20:53.264Z,66.07
2023-02-24T17:23:21.794Z,66.07
2023-02-24T17:25:53.559Z,66.42
2023-02-24T17:28:22.264Z,66.89
2023-02-24T17:30:50.777Z,66.80
2023-02-24T17:33:20.530Z,67.34
2023-02-24T17:35:49.570Z,67.01
2023-02-24T17:38:20.177Z,66.79
2023-02-24T17:40:48.899Z,67.27
2023-02-24T17:43:17.515Z,68.15
2023-02-24T17:45:47.679Z,67.64
2023-02-24T17:48:16.768Z,67.54
2023-02-24T17:50:51.130Z,67.50
2023-02-24T17:53:19.631Z,67.66
2023-02-24T17:56:01.952Z,67.55
2023-02-24T17:58:30.890Z,67.36
2023-02-24T18:01:00.388Z,67.51
2023-02-24T18:03:29.287Z,67.62
2023-02-24T18:06:03.272Z,68.15
2023-02-24T18:08:33.368Z,67.78
2023-02-24T18:11:01.785Z,68.30
2023-02-24T18:13:31.292Z,67.91
2023-02-24T18:16:00.048Z,68.49
2023-02-24T18:18:30.214Z,68.13
2023-02-24T18:21:04.160Z,68.49
2023-02-24T18:23:32.668Z,68.63
2023-02-24T18:26:03.199Z,69.41
2023-02-24T18:28:32.025Z,70.19
2023-02-24T18:31:03.260Z,70.47
2023-02-24T18:33:31.898Z,70.56
2023-02-24T18:36:02.948Z,71.50
2023-02-24T18:38:31.325Z,71.77
2023-02-24T18:41:01.184Z,72.26
2023-02-24T18:43:30.102Z,72.20
2023-02-24T18:45:59.448Z,72.38
2023-02-24T18:48:28.427Z,72.63
2023-02-24T18:50:58.649Z,73.19
2023-02-24T18:53:30.386Z,73.49
2023-02-24T18:56:02.214Z,72.89
2023-02-24T18:58:31.049Z,73.70
2023-02-24T19:00:59.739Z,73.76
2023-02-24T19:03:28.119Z,73.72
2023-02-24T19:05:56.687Z,73.39
2023-02-24T19:08:25.000Z,74.12
2023-02-24T19:10:54.689Z,74.24
2023-02-24T19:13:24.039Z,74.00
2023-02-24T19:15:52.477Z,74.20
2023-02-24T19:18:20.819Z,74.84
2023-02-24T19:20:49.259Z,75.01
2023-02-24T19:23:17.613Z,75.14
2023-02-24T19:25:46.005Z,74.94
2023-02-24T19:28:16.389Z,75.65
2023-02-24T19:30:44.975Z,75.56
2023-02-24T19:33:13.400Z,75.78
2023-02-24T19:35:42.920Z,75.59
2023-02-24T19:38:14.657Z,75.60
2023-02-24T19:40:43.521Z,76.33
2023-02-24T19:43:12.410Z,76.19
2023-02-24T19:45:43.349Z,76.16
2023-02-24T19:48:11.795Z,76.10
2023-02-24T19:50:41.395Z,76.14
2023-02-24T19:53:10.156Z,76.09
2023-02-24T19:55:38.536Z,76.13
2023-02-24T19:58:06.868Z,76.48
2023-02-24T20:00:35.213Z,76.17
2023-02-24T20:03:04.907Z,75.84
2023-02-24T20:05:36.454Z,76.02
2023-02-24T20:08:05.192Z,76.22
2023-02-24T20:10:33.552Z,76.10
2023-02-24T20:13:02.005Z,76.29
2023-02-24T20:15:31.556Z,76.52
2023-02-24T20:18:08.773Z,76.27
2023-02-24T20:20:37.350Z,76.25
2023-02-24T20:23:06.312Z,76.40
2023-02-24T20:25:34.778Z,76.15
2023-02-24T20:28:03.229Z,76.60
2023-02-24T20:30:31.620Z,76.63
2023-02-24T20:33:00.106Z,76.61
2023-02-24T20:35:30.189Z,76.85
2023-02-24T20:37:58.506Z,77.06
2023-02-24T20:40:26.936Z,76.80
2023-02-24T20:42:55.375Z,76.88
2023-02-24T20:45:23.722Z,76.62
2023-02-24T20:47:52.078Z,76.23
2023-02-24T20:50:20.467Z,76.73
2023-02-24T20:52:50.122Z,76.98
2023-02-24T20:55:18.612Z,76.50
2023-02-24T20:57:47.005Z,76.39
2023-02-24T21:00:16.281Z,77.21
2023-02-24T21:02:45.083Z,76.68
2023-02-24T21:05:19.727Z,76.82
2023-02-24T21:07:50.947Z,77.29
2023-02-24T21:10:22.406Z,77.16
2023-02-24T21:12:52.601Z,77.36
2023-02-24T21:15:21.948Z,77.01
2023-02-24T21:17:54.167Z,76.96
2023-02-24T21:20:22.554Z,77.06
2023-02-24T21:22:52.984Z,77.69
2023-02-24T21:25:21.420Z,77.34
2023-02-24T21:27:49.757Z,77.75
2023-02-24T21:30:18.397Z,77.33
2023-02-24T21:32:46.943Z,77.28
2023-02-24T21:35:21.665Z,77.52
2023-02-24T21:37:49.997Z,76.98
2023-02-24T21:40:19.959Z,77.44
2023-02-24T21:42:55.556Z,77.47
2023-02-24T21:45:24.539Z,77.87
2023-02-24T21:47:53.037Z,77.68
2023-02-24T21:50:23.789Z,77.81
2023-02-24T21:52:52.605Z,78.31
2023-02-24T21:55:23.494Z,78.75
2023-02-24T21:57:55.199Z,78.11
2023-02-24T22:00:24.413Z,78.39
2023-02-24T22:02:59.917Z,78.01
2023-02-24T22:05:29.318Z,77.92
2023-02-24T22:07:58.006Z,78.40
2023-02-24T22:10:28.122Z,78.13
2023-02-24T22:12:57.930Z,78.34
2023-02-24T22:15:26.408Z,78.26
2023-02-24T22:17:57.899Z,78.32
2023-02-24T22:20:26.598Z,78.47
2023-02-24T22:23:05.691Z,77.69
2023-02-24T22:25:39.690Z,78.57
2023-02-24T22:28:08.495Z,78.22
2023-02-24T22:30:36.907Z,78.42
2023-02-24T22:33:05.359Z,78.62
2023-02-24T22:35:35.390Z,78.71
2023-02-24T22:38:04.458Z,78.88
2023-02-24T22:40:33.161Z,79.16
2023-02-24T22:43:05.083Z,78.85
2023-02-24T22:45:34.126Z,79.21
2023-02-24T22:48:03.086Z,79.41
2023-02-24T22:50:31.753Z,79.53
2023-02-24T22:53:04.455Z,79.67
2023-02-24T22:55:33.291Z,79.81
2023-02-24T22:58:03.183Z,80.03
2023-02-24T23:00:32.002Z,79.73
2023-02-24T23:03:00.737Z,79.84
2023-02-24T23:05:29.849Z,79.97
2023-02-24T23:07:59.056Z,79.90
2023-02-24T23:10:28.026Z,79.90
2023-02-24T23:12:56.923Z,79.86
2023-02-24T23:15:26.910Z,79.96
2023-02-24T23:17:55.467Z,80.44
2023-02-24T23:20:23.892Z,80.80
2023-02-24T23:22:53.579Z,80.83
2023-02-24T23:25:23.151Z,80.60
2023-02-24T23:27:54.060Z,80.98
2023-02-24T23:30:23.144Z,80.74
2023-02-24T23:33:01.047Z,80.44
2023-02-24T23:35:30.169Z,80.88
2023-02-24T23:37:58.497Z,80.88
2023-02-24T23:40:30.833Z,80.77
2023-02-24T23:43:02.586Z,80.50
2023-02-24T23:45:30.970Z,80.28
2023-02-24T23:48:00.630Z,80.41
2023-02-24T23:50:29.000Z,80.41
2023-02-24T23:52:58.563Z,79.95
2023-02-24T23:55:26.912Z,80.78
2023-02-24T23:57:55.418Z,80.64
